Hovedside
METAR-TAF:

METAR-TAF

Lufthavner :

Sandefjord lufthavn. Torp

Sandefjord, Norge

breddegrad: 59-12N, lengdegrad: 010-16E, høyde over havet: 8 m

Gjeldene værobservasjon

Denne rapporten ble laget for 27 minutter siden, klokken 18:20 UTC
Vind 8 kt fra Nord
Temperatur 0°C
Luftfuktighet 80%
Trykk 1038 hPa
Sikt 10 km eller mer
Overskyet i en høyde av 2100 ft

METAR: ENTO 191820Z 36008KT 9999 OVC021 M00/M03 Q1038

Tid: 19:47 (18:47 UTC)

Varsel

Varsel gyldig fra 19. klokken 18 UTC til 20. klokken 18 UTC
Vind 8 kt fra Nord
Sikt 10 km eller mer
Brutte skyer i en høyde av 2000 ft

TAF: ENTO 1918/2018 01008KT 9999 BKN020

Værobservasjoner og værvarsel for over 4000 flyplasser (METAR- og TAF-rapporter).

Tilgjengelige stasjoner er representert av de røde og gule prikkene på kartet.

Hold musepekeren over prikken for å se navnet på stasjonen.

Klikk så for å se værobservasjoner og -varsler.

For å forandre kartet kan du klikke på den grønne knappen med svart kryss for å zoome inn, på den grønne knappen med strek for å zoome ut, eller på de grønne pilene for å se tilstøtende kart.


METAR-TAF: